Mount Hood, OR

2:34 PM PDT on August 20, 2014 (GMT -0700)
Columbia Gorge Regional-The Dalles | Change Station
CLOSE
Current Station
Airport
Location: The Dalles,
Elevation: 246 ft
Nearby Weather Stations

Elev 246 ft 45.62 °N, 121.17 °W | Updated 41 minutes ago

Clear
Clear
80 °F
Feels Like 80 °F
N
26
Wind Variable Wind from WNW
Gusts 31 mph

Today
High -- | Low -- °F
--% Chance of Precip.
Yesterday
High -- | Low -- °F
Precip. -- in
6:13 AM 8:05 PM
Waning Crescent, 19% visible
Pressure 29.85 in
Visibility 10.0 miles
Clouds Clear
Dew Point 42 °F
Humidity 26%
Rainfall 0.00 in
Snow Depth 0 in , 0 in , 0 in
UV 9 out of 12
Pollen 3.70 out of 12
Air Quality Not available.
Flu Activity Not available.
METAR KDLS 202053Z AUTO 30023G27KT 10SM CLR 27/06 A2985 RMK AO2 PK WND 30028/2053 SLP107 T02670056 58009

More Conditions Fewer Conditions

Pressure 29.85 in
Visibility 10.0 miles
Clouds Clear
Dew Point 42 °F
Humidity 26%
Rainfall 0.00 in
Snow Depth 0 in , 0 in , 0 in
UV 9 out of 12
Pollen 3.70 out of 12
Air Quality Not available.
Flu Activity Not available.
METAR KDLS 202053Z AUTO 30023G27KT 10SM CLR 27/06 A2985 RMK AO2 PK WND 30028/2053 SLP107 T02670056 58009

More Conditions Fewer Conditions

10-Day Weather Forecast

Almanac

Astronomy

Aug. 20, 2014 Rise Set
Actual Time 6:13 AM PDT 8:05 PM PDT
Civil Twilight 5:41 AM PDT 8:36 PM PDT
Nautical Twilight 5:02 AM PDT 9:15 PM PDT
Astronomical Twilight 4:20 AM PDT 9:57 PM PDT
Moon 1:52 AM PDT 4:59 PM PDT
Length of Visible Light 14h 55m
Length of Day
13h 52m
Tomorrow will be 2m 56s shorter.
Waning Crescent, 19% of the Moon is Illuminated
Today
Waning Crescent
Aug 25
New
Sep 2
First Quarter
Sep 8
Full
Sep 15
Last Quarter

Today's Extremes

State Highs State Lows

Community

WunderPhotos

Upload Photos

1,745,763 photos uploaded!

WunderBlogs® & News

Nearby

Snow Depth

Station Depth Elevation
Greenpoint 0 in 3200 ft
Blazed Alder 0 in 3650 ft
Mud Ridge 0 in 3800 ft
North Fork 1 in 3120 ft
Clear Lake 1 in 3500 ft

Earthquake Activity

City Distance Mag. Time & Date
No recent earthquake activity has been reported nearby.
Minimum magnitude displayed is 2.5.

Coastal Water Temperatures

Place Temperature
No Stations Reporting

Nearby Weather Stations